createdAt,value
2023-01-26T00:00:56.041Z,102065.38
2023-01-26T00:04:00.414Z,102058.13
2023-01-26T00:07:02.327Z,102065.38
2023-01-26T00:13:25.534Z,102051.41
2023-01-26T00:16:29.450Z,102052.59
2023-01-26T00:19:33.069Z,102044.44
2023-01-26T00:22:35.615Z,102037.84
2023-01-26T00:25:39.127Z,102025.81
2023-01-26T00:28:42.002Z,102032.78
2023-01-26T00:31:43.668Z,102024.63
2023-01-26T00:34:47.043Z,102013.81
2023-01-26T00:37:52.430Z,102019.91
2023-01-26T00:40:55.089Z,102020.81
2023-01-26T00:43:57.227Z,102023.50
2023-01-26T00:46:58.808Z,102019.09
2023-01-26T00:53:23.635Z,102018.75
2023-01-26T00:56:27.157Z,102015.56
2023-01-26T00:59:30.341Z,102011.50
2023-01-26T01:02:31.828Z,101999.97
2023-01-26T01:05:36.671Z,101999.66
2023-01-26T01:08:39.797Z,101998.50
2023-01-26T01:11:42.810Z,101997.47
2023-01-26T01:14:45.840Z,101991.69
2023-01-26T01:17:48.191Z,101981.09
2023-01-26T01:20:51.694Z,101980.75
2023-01-26T01:23:53.620Z,101975.34
2023-01-26T01:26:56.275Z,101981.91
2023-01-26T01:29:58.850Z,101981.91
2023-01-26T01:33:00.211Z,101978.34
2023-01-26T01:36:07.000Z,101981.41
2023-01-26T01:39:09.645Z,101983.81
2023-01-26T01:42:11.187Z,101979.56
2023-01-26T01:45:41.159Z,101980.09
2023-01-26T01:48:51.951Z,101979.88
2023-01-26T01:52:00.987Z,101966.69
2023-01-26T01:55:06.947Z,101961.84
2023-01-26T01:58:10.201Z,101953.72
2023-01-26T02:01:12.246Z,101951.50
2023-01-26T02:04:16.157Z,101959.13
2023-01-26T02:07:20.420Z,101958.63
2023-01-26T02:10:22.750Z,101950.03
2023-01-26T02:13:27.348Z,101941.75
2023-01-26T02:16:28.661Z,101949.84
2023-01-26T02:19:40.307Z,101948.19
2023-01-26T02:22:52.655Z,101934.00
2023-01-26T02:26:14.102Z,101926.75
2023-01-26T02:29:16.693Z,101923.84
2023-01-26T02:32:19.279Z,101927.56
2023-01-26T02:35:20.634Z,101923.38
2023-01-26T02:42:08.507Z,101924.81
2023-01-26T02:45:13.912Z,101921.44
2023-01-26T02:48:36.983Z,101921.47
2023-01-26T02:51:38.499Z,101907.56
2023-01-26T02:54:59.723Z,101904.72
2023-01-26T02:58:05.624Z,101900.16
2023-01-26T03:01:06.938Z,101897.97
2023-01-26T03:04:09.719Z,101897.13
2023-01-26T03:07:11.305Z,101892.06
2023-01-26T03:10:14.238Z,101888.69
2023-01-26T03:13:17.263Z,101902.84
2023-01-26T03:16:19.872Z,101901.53
2023-01-26T03:19:41.465Z,101892.06
2023-01-26T03:23:09.450Z,101899.28
2023-01-26T03:26:30.059Z,101893.03
2023-01-26T03:29:34.089Z,101905.03
2023-01-26T03:32:35.430Z,101898.31
2023-01-26T03:35:39.256Z,101889.03
2023-01-26T03:38:40.591Z,101882.63
2023-01-26T03:42:01.116Z,101890.69
2023-01-26T03:45:22.962Z,101893.56
2023-01-26T03:48:42.254Z,101896.75
2023-01-26T03:52:03.056Z,101891.19
2023-01-26T03:55:23.727Z,101893.56
2023-01-26T03:58:30.781Z,101893.00
2023-01-26T04:01:33.972Z,101899.41
2023-01-26T04:04:53.604Z,101884.78
2023-01-26T04:08:14.417Z,101890.34
2023-01-26T04:11:15.742Z,101878.69
2023-01-26T04:14:47.664Z,101879.53
2023-01-26T04:18:11.651Z,101876.34
2023-01-26T04:21:28.557Z,101867.75
2023-01-26T04:24:31.091Z,101857.63
2023-01-26T04:27:34.266Z,101866.91
2023-01-26T04:30:36.912Z,101861.84
2023-01-26T04:33:40.236Z,101853.91
2023-01-26T04:36:42.547Z,101866.72
2023-01-26T04:43:04.957Z,101861.16
2023-01-26T04:46:09.491Z,101857.44
2023-01-26T04:49:12.753Z,101854.22
2023-01-26T04:52:14.405Z,101858.28
2023-01-26T04:55:17.323Z,101849.16
2023-01-26T04:58:19.461Z,101850.00
2023-01-26T05:01:22.673Z,101845.28
2023-01-26T05:04:26.055Z,101838.72
2023-01-26T05:07:28.043Z,101848.00
2023-01-26T05:10:30.948Z,101841.41
2023-01-26T05:13:32.262Z,101845.13
2023-01-26T05:16:34.902Z,101841.09
2023-01-26T05:19:36.877Z,101841.91
2023-01-26T05:22:39.547Z,101845.47
2023-01-26T05:25:42.203Z,101842.72
2023-01-26T05:28:43.522Z,101842.06
2023-01-26T05:31:46.196Z,101843.78
2023-01-26T05:34:48.442Z,101844.97
2023-01-26T05:37:51.000Z,101841.03
2023-01-26T05:40:53.610Z,101839.69
2023-01-26T05:43:55.208Z,101842.56
2023-01-26T05:46:56.571Z,101840.72
2023-01-26T05:49:58.857Z,101841.88
2023-01-26T05:53:02.516Z,101846.97
2023-01-26T05:56:04.200Z,101849.63
2023-01-26T05:59:05.835Z,101856.34
2023-01-26T06:02:08.461Z,101857.34
2023-01-26T06:05:10.600Z,101857.72
2023-01-26T06:08:13.111Z,101862.44
2023-01-26T06:11:15.963Z,101862.44
2023-01-26T06:14:17.598Z,101868.19
2023-01-26T06:17:20.255Z,101858.03
2023-01-26T06:20:22.473Z,101863.75
2023-01-26T06:23:25.805Z,101877.59
2023-01-26T06:26:27.306Z,101869.22
2023-01-26T06:29:30.080Z,101869.53
2023-01-26T06:32:31.408Z,101861.91
2023-01-26T06:35:35.446Z,101865.97
2023-01-26T06:38:38.524Z,101862.75
2023-01-26T06:41:43.206Z,101867.81
2023-01-26T06:48:04.828Z,101863.22
2023-01-26T06:51:45.535Z,101869.13
2023-01-26T06:54:48.438Z,101869.47
2023-01-26T06:57:49.757Z,101871.00
2023-01-26T07:00:52.857Z,101872.72
2023-01-26T07:03:55.182Z,101863.28
2023-01-26T07:06:58.758Z,101862.19
2023-01-26T07:10:00.038Z,101856.28
2023-01-26T07:13:04.665Z,101856.63
2023-01-26T07:16:07.939Z,101866.94
2023-01-26T07:19:10.517Z,101860.88
2023-01-26T07:22:15.113Z,101867.25
2023-01-26T07:25:17.848Z,101873.84
2023-01-26T07:31:42.210Z,101868.00
2023-01-26T07:34:44.347Z,101869.22
2023-01-26T07:37:48.055Z,101865.69
2023-01-26T07:40:51.276Z,101868.56
2023-01-26T07:43:54.098Z,101870.97
2023-01-26T07:46:56.350Z,101879.78
2023-01-26T07:49:57.665Z,101873.22
2023-01-26T07:53:01.035Z,101872.88
2023-01-26T07:56:07.538Z,101875.06
2023-01-26T07:59:12.571Z,101884.56
2023-01-26T08:02:15.126Z,101882.72
2023-01-26T08:05:16.706Z,101886.81
2023-01-26T08:08:20.071Z,101890.59
2023-01-26T08:11:23.589Z,101884.47
2023-01-26T08:14:33.135Z,101881.16
2023-01-26T08:17:40.855Z,101882.22
2023-01-26T08:20:49.704Z,101890.72
2023-01-26T08:23:54.075Z,101885.81
2023-01-26T08:26:56.988Z,101890.25
2023-01-26T08:29:59.159Z,101887.78
2023-01-26T08:33:01.703Z,101885.31
2023-01-26T08:36:04.574Z,101884.31
2023-01-26T08:39:07.828Z,101889.03
2023-01-26T08:45:33.707Z,101886.09
2023-01-26T08:48:36.614Z,101876.50
2023-01-26T08:51:38.126Z,101870.75
2023-01-26T08:54:41.655Z,101879.91
2023-01-26T08:57:43.837Z,101876.03
2023-01-26T09:00:45.474Z,101874.50
2023-01-26T09:03:48.098Z,101876.88
2023-01-26T09:06:49.490Z,101884.78
2023-01-26T09:09:51.480Z,101887.84
2023-01-26T09:12:52.879Z,101881.59
2023-01-26T09:15:56.811Z,101884.13
2023-01-26T09:18:58.506Z,101895.09
2023-01-26T09:22:01.108Z,101887.69
2023-01-26T09:25:03.823Z,101886.66
2023-01-26T09:31:25.884Z,101889.53
2023-01-26T09:34:31.209Z,101892.56
2023-01-26T09:37:33.797Z,101892.56
2023-01-26T09:40:46.026Z,101889.38
2023-01-26T09:43:51.032Z,101894.59
2023-01-26T09:47:04.401Z,101892.50
2023-01-26T09:50:13.387Z,101897.44
2023-01-26T09:53:21.537Z,101892.41
2023-01-26T09:56:32.959Z,101894.47
2023-01-26T09:59:40.017Z,101886.03
2023-01-26T10:02:53.378Z,101884.19
2023-01-26T10:06:02.621Z,101892.63
2023-01-26T10:09:13.149Z,101894.00
2023-01-26T10:12:20.930Z,101886.03
2023-01-26T10:15:31.637Z,101879.25
2023-01-26T10:18:47.989Z,101884.22
2023-01-26T10:21:51.290Z,101871.91
2023-01-26T10:24:55.776Z,101861.06
2023-01-26T10:27:59.283Z,101857.19
2023-01-26T10:31:02.517Z,101861.75
2023-01-26T10:34:13.962Z,101847.09
2023-01-26T10:37:22.605Z,101837.81
2023-01-26T10:40:25.512Z,101837.69
2023-01-26T10:43:29.898Z,101826.69
2023-01-26T10:46:34.523Z,101823.00
2023-01-26T10:49:37.038Z,101822.66
2023-01-26T10:52:38.654Z,101827.72
2023-01-26T10:55:41.049Z,101819.47
2023-01-26T10:58:57.697Z,101823.50
2023-01-26T11:02:02.098Z,101817.94
2023-01-26T11:05:19.437Z,101805.94
2023-01-26T11:08:34.073Z,101815.06
2023-01-26T11:11:36.736Z,101812.34
2023-01-26T11:14:38.709Z,101811.34
2023-01-26T11:17:48.664Z,101805.75
2023-01-26T11:21:13.236Z,101802.56
2023-01-26T11:24:23.377Z,101801.22
2023-01-26T11:27:39.835Z,101803.91
2023-01-26T11:31:02.630Z,101808.97
2023-01-26T11:34:16.263Z,101808.81
2023-01-26T11:37:44.606Z,101796.66
2023-01-26T11:40:53.690Z,101789.06
2023-01-26T11:44:30.764Z,101791.94
2023-01-26T11:47:43.075Z,101789.75
2023-01-26T11:50:50.196Z,101782.81
2023-01-26T11:54:20.312Z,101778.75
2023-01-26T11:57:29.976Z,101767.13
2023-01-26T12:00:40.592Z,101770.16
2023-01-26T12:03:46.603Z,101764.75
2023-01-26T12:06:55.587Z,101756.31
2023-01-26T12:10:01.775Z,101753.59
2023-01-26T12:13:11.260Z,101750.56
2023-01-26T12:16:17.992Z,101749.22
2023-01-26T12:19:35.132Z,101751.41
2023-01-26T12:22:40.096Z,101746.00
2023-01-26T12:25:47.171Z,101739.41
2023-01-26T12:28:56.439Z,101739.72
2023-01-26T12:32:03.435Z,101740.09
2023-01-26T12:35:11.737Z,101728.78
2023-01-26T12:38:18.544Z,101717.63
2023-01-26T12:41:34.014Z,101728.09
2023-01-26T12:44:38.660Z,101719.34
2023-01-26T12:47:45.995Z,101713.56
2023-01-26T12:50:54.068Z,101718.97
2023-01-26T12:54:03.453Z,101713.19
2023-01-26T12:57:12.212Z,101716.44
2023-01-26T13:00:20.607Z,101720.84
2023-01-26T13:03:25.430Z,101720.66
2023-01-26T13:06:28.829Z,101724.06
2023-01-26T13:09:30.466Z,101717.66
2023-01-26T13:12:50.273Z,101722.03
2023-01-26T13:16:26.078Z,101729.63
2023-01-26T13:19:52.312Z,101726.41
2023-01-26T13:22:55.541Z,101728.09
2023-01-26T13:26:24.781Z,101733.16
2023-01-26T13:29:51.447Z,101742.28
2023-01-26T13:32:54.524Z,101748.19
2023-01-26T13:35:56.824Z,101752.59
2023-01-26T13:39:04.470Z,101745.66
2023-01-26T13:42:20.955Z,101753.25
2023-01-26T13:45:31.822Z,101753.94
2023-01-26T13:48:41.281Z,101755.13
2023-01-26T13:51:43.439Z,101748.88
2023-01-26T13:54:46.333Z,101755.81
2023-01-26T13:57:50.037Z,101759.16
2023-01-26T14:00:58.149Z,101757.81
2023-01-26T14:04:04.561Z,101759.31
2023-01-26T14:07:09.550Z,101763.88
2023-01-26T14:10:19.996Z,101761.84
2023-01-26T14:13:27.970Z,101760.16
2023-01-26T14:16:33.760Z,101764.03
2023-01-26T14:19:41.521Z,101766.94
2023-01-26T14:22:42.974Z,101757.63
2023-01-26T14:25:49.910Z,101771.97
2023-01-26T14:28:51.365Z,101767.25
2023-01-26T14:31:55.727Z,101763.34
2023-01-26T14:34:59.839Z,101766.03
2023-01-26T14:38:20.620Z,101771.28
2023-01-26T14:41:28.880Z,101782.41
2023-01-26T14:44:31.588Z,101777.66
2023-01-26T14:47:34.969Z,101775.63
2023-01-26T14:50:38.723Z,101762.84
2023-01-26T14:53:40.455Z,101758.94
2023-01-26T14:56:46.457Z,101758.59
2023-01-26T14:59:52.106Z,101752.19
2023-01-26T15:02:57.593Z,101755.06
2023-01-26T15:06:17.512Z,101764.19
2023-01-26T15:09:22.213Z,101765.72
2023-01-26T15:12:25.697Z,101761.66
2023-01-26T15:15:30.445Z,101769.94
2023-01-26T15:18:36.813Z,101770.28
2023-01-26T15:21:39.240Z,101771.59
2023-01-26T15:24:41.169Z,101774.81
2023-01-26T15:27:51.115Z,101775.50
2023-01-26T15:30:56.366Z,101772.47
2023-01-26T15:34:01.819Z,101778.41
2023-01-26T15:37:20.062Z,101783.31
2023-01-26T15:40:22.851Z,101776.53
2023-01-26T15:43:26.609Z,101776.53
2023-01-26T15:46:29.234Z,101777.03
2023-01-26T15:49:30.613Z,101778.88
2023-01-26T15:52:33.157Z,101787.16
2023-01-26T15:55:35.648Z,101797.28
2023-01-26T15:58:39.406Z,101790.66
2023-01-26T16:05:02.032Z,101792.53
2023-01-26T16:08:04.777Z,101795.72
2023-01-26T16:11:11.637Z,101787.50
2023-01-26T16:14:14.193Z,101785.97
2023-01-26T16:17:18.351Z,101785.47
2023-01-26T16:20:19.950Z,101795.09
2023-01-26T16:23:29.086Z,101791.38
2023-01-26T16:26:31.971Z,101790.53
2023-01-26T16:29:35.746Z,101792.84
2023-01-26T16:32:38.514Z,101792.19
2023-01-26T16:35:39.914Z,101788.94
2023-01-26T16:38:42.830Z,101788.44
2023-01-26T16:41:45.600Z,101801.59
2023-01-26T16:44:47.746Z,101782.88
2023-01-26T16:47:52.820Z,101776.63
2023-01-26T16:50:54.375Z,101788.63
2023-01-26T16:53:56.457Z,101782.72
2023-01-26T16:56:59.021Z,101783.88
2023-01-26T17:00:00.954Z,101781.38
2023-01-26T17:03:03.819Z,101777.13
2023-01-26T17:06:05.382Z,101772.28
2023-01-26T17:09:07.993Z,101778.69
2023-01-26T17:12:09.760Z,101783.53
2023-01-26T17:15:12.390Z,101783.88
2023-01-26T17:18:14.580Z,101773.59
2023-01-26T17:21:19.870Z,101777.63
2023-01-26T17:24:21.757Z,101763.63
2023-01-26T17:27:25.186Z,101772.09
2023-01-26T17:30:27.227Z,101777.16
2023-01-26T17:33:30.603Z,101779.03
2023-01-26T17:39:53.392Z,101784.44
2023-01-26T17:42:56.107Z,101780.06
2023-01-26T17:46:06.778Z,101787.50
2023-01-26T17:49:09.440Z,101786.41
2023-01-26T17:52:13.422Z,101807.00
2023-01-26T17:55:16.156Z,101795.06
2023-01-26T17:58:18.777Z,101800.63
2023-01-26T18:01:22.432Z,101805.31
2023-01-26T18:04:25.070Z,101808.22
2023-01-26T18:07:27.626Z,101807.19
2023-01-26T18:10:29.731Z,101799.97
2023-01-26T18:13:33.584Z,101796.19
2023-01-26T18:16:35.644Z,101796.06
2023-01-26T18:19:36.984Z,101796.22
2023-01-26T18:22:38.253Z,101798.56
2023-01-26T18:25:40.304Z,101798.72
2023-01-26T18:28:42.150Z,101809.22
2023-01-26T18:31:45.401Z,101803.66
2023-01-26T18:34:46.702Z,101804.84
2023-01-26T18:37:49.771Z,101807.53
2023-01-26T18:40:51.086Z,101804.63
2023-01-26T18:43:53.587Z,101816.13
2023-01-26T18:46:55.553Z,101824.53
2023-01-26T18:49:57.301Z,101815.41
2023-01-26T18:52:59.261Z,101814.44
2023-01-26T18:56:01.512Z,101818.66
2023-01-26T19:02:24.938Z,101810.59
2023-01-26T19:05:26.320Z,101814.44
2023-01-26T19:08:27.690Z,101814.06
2023-01-26T19:11:31.016Z,101820.94
2023-01-26T19:14:32.633Z,101823.72
2023-01-26T19:17:34.623Z,101816.47
2023-01-26T19:20:35.959Z,101818.78
2023-01-26T19:23:39.087Z,101812.09
2023-01-26T19:26:40.455Z,101815.63
2023-01-26T19:29:43.023Z,101808.91
2023-01-26T19:33:03.539Z,101815.16
2023-01-26T19:36:07.179Z,101812.81
2023-01-26T19:39:11.454Z,101806.59
2023-01-26T19:42:12.735Z,101815.38
2023-01-26T19:45:14.466Z,101808.94
2023-01-26T19:48:16.597Z,101812.34
2023-01-26T19:51:19.867Z,101809.31
2023-01-26T19:54:21.291Z,101809.97
2023-01-26T19:57:22.797Z,101821.13
2023-01-26T20:00:26.539Z,101814.69
2023-01-26T20:03:28.790Z,101810.47
2023-01-26T20:06:34.088Z,101810.47
2023-01-26T20:09:35.505Z,101810.97
2023-01-26T20:12:36.906Z,101815.19
2023-01-26T20:15:38.227Z,101805.94
2023-01-26T20:18:40.197Z,101800.19
2023-01-26T20:21:42.343Z,101816.06
2023-01-26T20:24:43.749Z,101812.84
2023-01-26T20:27:45.464Z,101809.31
2023-01-26T20:30:46.857Z,101817.25
2023-01-26T20:33:50.535Z,101822.66
2023-01-26T20:36:56.847Z,101827.53
2023-01-26T20:39:58.178Z,101822.81
2023-01-26T20:43:00.763Z,101826.88
2023-01-26T20:49:26.511Z,101819.06
2023-01-26T20:52:29.048Z,101822.78
2023-01-26T20:55:31.562Z,101820.94
2023-01-26T20:58:32.848Z,101819.75
2023-01-26T21:01:36.896Z,101817.38
2023-01-26T21:04:39.349Z,101817.91
2023-01-26T21:07:42.054Z,101818.91
2023-01-26T21:10:45.811Z,101809.78
2023-01-26T21:13:48.828Z,101816.72
2023-01-26T21:16:50.087Z,101819.09
2023-01-26T21:19:53.309Z,101816.91
2023-01-26T21:22:54.622Z,101814.34
2023-01-26T21:26:05.371Z,101816.22
2023-01-26T21:29:08.556Z,101822.66
2023-01-26T21:35:32.731Z,101816.88
2023-01-26T21:38:37.181Z,101822.28
2023-01-26T21:41:57.791Z,101815.38
2023-01-26T21:45:29.975Z,101815.91
2023-01-26T21:48:34.985Z,101819.44
2023-01-26T21:51:56.532Z,101817.41
2023-01-26T21:54:59.460Z,101817.91
2023-01-26T21:58:15.372Z,101828.72
2023-01-26T22:01:18.057Z,101830.59
2023-01-26T22:04:21.485Z,101834.81
2023-01-26T22:07:24.706Z,101837.53
2023-01-26T22:10:26.020Z,101840.56
2023-01-26T22:13:28.816Z,101829.09
2023-01-26T22:16:31.586Z,101831.59
2023-01-26T22:19:32.888Z,101832.41
2023-01-26T22:25:56.223Z,101832.28
2023-01-26T22:29:00.101Z,101833.28
2023-01-26T22:32:03.153Z,101829.94
2023-01-26T22:35:05.659Z,101819.63
2023-01-26T22:38:08.920Z,101826.03
2023-01-26T22:41:14.288Z,101824.03
2023-01-26T22:44:16.921Z,101813.22
2023-01-26T22:47:18.211Z,101819.63
2023-01-26T22:50:20.795Z,101818.28
2023-01-26T22:53:22.867Z,101803.75
2023-01-26T22:56:26.097Z,101809.00
2023-01-26T22:59:28.690Z,101806.63
2023-01-26T23:02:30.064Z,101811.84
2023-01-26T23:05:33.637Z,101811.88
2023-01-26T23:08:36.289Z,101819.13
2023-01-26T23:11:38.982Z,101804.94
2023-01-26T23:14:40.413Z,101817.63
2023-01-26T23:17:41.799Z,101821.66
2023-01-26T23:20:44.414Z,101821.31
2023-01-26T23:23:47.772Z,101823.50
2023-01-26T23:26:49.103Z,101817.94
2023-01-26T23:29:51.734Z,101826.22
2023-01-26T23:32:53.066Z,101813.72
2023-01-26T23:35:56.057Z,101822.16
2023-01-26T23:38:59.314Z,101824.38
2023-01-26T23:42:00.647Z,101820.31
2023-01-26T23:45:03.267Z,101821.50
2023-01-26T23:48:05.604Z,101806.97
2023-01-26T23:51:10.337Z,101810.19
2023-01-26T23:54:13.611Z,101812.53
2023-01-26T23:57:14.873Z,101809.69
